Résultats

Campagne : Solo. Édition 2017.

10 Km
24/06/2017 à 09:00:00 - . (34)
56 arrivant(e)s.


 
Les autres classements de cet évènement




Place▲ Temps Dossard Nom Prenom Categ #Categ Sexe #Sexe Club Vit Moy Diplôme Partager
1 00:36:25 46 CAMPET PASCAL M2M 1 M 1 16.48
2 00:37:43 49 LLORENS MICHAEL SEM 1 M 2 15.91
3 00:38:20 16 LEVORATI LUCAS SEM 2 M 3 ACM MONTPELLIER 15.65
4 00:38:59 64 BERMUDE ADRIEN SEM 3 M 4 15.39
5 00:39:07 27 LAYRISSE JEAN-MILE SEM 4 M 5 TEAM RAIDLIGHT CEVENNES 15.34
6 00:40:28 59 VEYRAT GUILLAUME ESM 1 M 6 14.83
7 00:40:36 63 BALSAN LIONEL SEM 5 M 7 14.78
8 00:41:18 53 DUMOND FRANCK M1M 1 M 8 14.53
9 00:41:19 41 DUPOUY AURELIE SEF 1 F 1 14.52
10 00:41:23 48 VILLARD FABRICE M1M 2 M 9 14.50
11 00:41:48 51 BLASCO RENAUD M1M 3 M 10 14.35
12 00:42:03 38 GARCIA HENRI M2M 2 M 11 COURIR CLUB AIGUES MORTES 14.27
13 00:42:28 57 QUINET THOMAS SEM 6 M 12 14.13
14 00:44:02 18 DOS-SANTOS-PACHECO VICTOR M2M 3 M 13 RUN IN CRES 13.63
15 00:44:28 26 FERET GILBERT M3M 1 M 14 COURIR AIGUES MORTES 13.49
16 00:44:39 47 LAGNEAU CHRISTOPHE M2M 4 M 15 13.44
17 00:46:03 33 PETORIN JEROME M1M 4 M 16 SAINT BRES 13.03
18 00:46:33 22 BADI FARID M2M 5 M 17 WAIMEA TRIATHLON LUNEL 12.89
19 00:46:38 50 BOULET SEBASTIEN SEM 7 M 18 12.87
20 00:46:50 55 ROUSSEL JEAN-BAPTISTE ESM 2 M 19 12.81
21 00:47:01 36 GALONNIER ELSA M1F 1 F 2 RUN IN CRES 12.76
22 00:47:30 35 ROCH ANNABELLE SEF 2 F 3 MANDELIEU LA NAPOULE 12.63
23 00:47:32 39 ROCH BRUNO M2M 6 M 20 LES MATELLES 12.62
24 00:48:02 52 ADANNOU CYRIL SEM 8 M 21 12.49
25 00:49:41 24 DE-CRUZ NADINE M2F 1 F 4 MAAM 12.08
26 00:49:44 44 LAGASSE PIERRE SEM 9 M 22 12.06
27 00:50:20 1 LARUE CLAUDE M3M 2 M 23 MUDAISON 11.92
28 00:50:26 8 FAISON LUDOVIC M1M 5 M 24 BAILLARGUES 11.90
29 00:50:28 62 FELIX LAURENE SEF 3 F 5 11.89
30 00:50:39 61 BERNARD SOPHIE M1F 2 F 6 11.85
31 00:50:50 56 TORREMONEIL LEA ESF 1 F 7 11.80
32 00:51:30 34 REQUIRAND PHILIPPE M2M 7 M 25 LES FOULEES SAUSSINOISES 11.65
33 00:52:20 65 BONNET CHRISTINE M2F 2 F 8 11.46
34 00:53:15 54 TAILHADES CATHY M2F 3 F 9 11.27
35 00:54:13 28 LE-TENDRE LAURENT M2M 8 M 26 RUN IN CRES 11.07
36 00:54:54 67 PINICIN FRANCOIS M2M 9 M 27 10.93
37 00:55:06 42 BONNIOL SERGE M1M 6 M 28 10.89
38 00:55:25 32 MAGNANO FLORIAN SEM 10 M 29 NIMES 10.83
39 00:55:53 30 MEJIAS GAEL SEM 11 M 30 SATURARGUES 10.74
40 00:57:13 43 LALLEMAND MELISSA SEF 4 F 10 10.49
41 00:57:52 23 DA-COSTA ANTHONY M1M 7 M 31 LATTES 10.37
42 00:58:07 7 NADAL CHRISTELLE SEF 5 F 11 MONTARNAUD 10.32
43 00:58:40 5 GAEREMYNCK JOFFREY M1M 8 M 32 VEDAS ENDURANCE 10.23
44 01:01:06 31 LANDA VALERIE M1F 3 F 12 JOGGING CATELNAU LE LEZ 9.82
45 01:01:06 12 ARDI LAURENCE M1F 4 F 13 SOMMIERES ATHLETISME 9.82
46 01:01:55 40 PAOLINO LAURENCE M1F 5 F 14 LES FOULEES SAUSSINOISES 9.69
47 01:03:24 10 GOUZERCH VINCENT M2M 10 M 33 COURIR A BEAUCAIRE 9.46
48 01:03:32 9 ROUSSILLE AMBRE SEF 6 F 15 PREMANON 9.44
49 01:04:03 15 FUSTER MURIEL SEF 7 F 16 CAMPAGNE 9.37
50 01:04:25 60 SERRE SEVERINE M1F 6 F 17 9.31
51 01:04:52 20 PICCIONI MARION SEF 8 F 18 SALINELLES 9.25
52 01:04:53 17 ARMENGAUD ELISABETH SEF 9 F 19 GAILHAN 9.25
53 01:05:17 66 MOURIER MYRIAM SEF 10 F 20 9.19
54 01:06:55 11 MARTIN CHRISTINE M1F 7 F 21 LES BIPEDES DE LA VAUNAGE 8.97
55 01:07:08 58 MALASSAGNE JACKY M4M 1 M 34 8.94
56 01:08:14 19 PAILHES MORGANE M1F 8 F 22 LE CRES 8.79